Time;durP1;ratioP1;P1;durP2;ratioP2;P2;SDS_P1;SDS_P2;PMS_P1;PMS_P2;Temp;Humidity;BMP_temperature;BMP_pressure;BME280_temperature;BME280_humidity;BME280_pressure;Samples;Min_cycle;Max_cycle;Signal;HPM_P1;HPM_P2
2024/04/11 00:02:19;;;;;;;1.77;0.80;;;23.60;44.80;;;;;;5423885;26;20345;-64
2024/04/11 00:04:45;;;;;;;1.48;0.90;;;23.60;44.80;;;;;;5429304;26;20003;-64
2024/04/11 00:07:10;;;;;;;1.30;0.90;;;23.60;45.40;;;;;;5426252;26;20125;-64
2024/04/11 00:09:36;;;;;;;1.67;0.90;;;23.60;44.90;;;;;;5431983;26;20678;-65
2024/04/11 00:12:02;;;;;;;1.65;1.00;;;23.60;44.90;;;;;;5426098;26;19995;-63
2024/04/11 00:14:29;;;;;;;1.80;0.98;;;23.60;44.80;;;;;;5436954;26;20076;-64
2024/04/11 00:16:54;;;;;;;1.70;0.80;;;23.50;44.80;;;;;;5435295;26;20039;-63
2024/04/11 00:19:20;;;;;;;1.17;0.73;;;23.50;44.80;;;;;;5430945;26;20003;-63
2024/04/11 00:21:48;;;;;;;1.52;0.98;;;23.50;44.90;;;;;;5430661;26;20006;-63
2024/04/11 00:24:13;;;;;;;1.45;0.90;;;23.50;44.90;;;;;;5429253;26;20068;-63
2024/04/11 00:26:39;;;;;;;1.10;0.75;;;23.50;44.90;;;;;;5431328;26;20006;-62
2024/04/11 00:29:09;;;;;;;1.52;0.80;;;23.50;44.90;;;;;;5429416;26;19996;-62
2024/04/11 00:31:36;;;;;;;1.40;0.98;;;23.50;44.90;;;;;;5424234;26;19995;-62
2024/04/11 00:34:23;;;;;;;1.75;0.85;;;23.50;44.90;;;;;;5423923;26;19999;-62
2024/04/11 00:36:53;;;;;;;1.42;0.80;;;23.50;44.90;;;;;;5429972;26;20004;-62
2024/04/11 00:39:20;;;;;;;1.52;0.80;;;23.40;44.90;;;;;;5426399;26;19998;-62
2024/04/11 00:41:46;;;;;;;1.23;0.80;;;23.50;45.00;;;;;;5426989;26;20054;-62
2024/04/11 00:44:12;;;;;;;1.15;0.80;;;23.40;45.00;;;;;;5433297;26;20307;-62
2024/04/11 00:46:39;;;;;;;1.42;0.93;;;23.40;45.00;;;;;;5428427;26;20016;-62
2024/04/11 00:49:05;;;;;;;1.48;0.80;;;23.40;45.00;;;;;;5430688;26;19999;-61
2024/04/11 00:51:31;;;;;;;1.48;0.90;;;23.40;45.00;;;;;;5427476;26;20073;-62
2024/04/11 00:53:58;;;;;;;1.85;0.90;;;23.40;45.00;;;;;;5426945;26;19995;-62
2024/04/11 00:56:25;;;;;;;1.73;0.80;;;23.40;45.50;;;;;;5430668;26;20024;-62
2024/04/11 00:58:52;;;;;;;1.30;0.80;;;23.40;45.00;;;;;;5430496;26;20003;-62
2024/04/11 01:01:18;;;;;;;1.92;1.08;;;23.40;45.60;;;;;;5430461;26;19998;-62
2024/04/11 01:03:44;;;;;;;1.17;0.80;;;23.30;45.00;;;;;;5427324;26;20063;-62
2024/04/11 01:06:11;;;;;;;1.42;0.85;;;23.30;45.00;;;;;;5429340;26;20034;-61
2024/04/11 01:08:36;;;;;;;1.52;0.73;;;23.30;45.10;;;;;;5428182;26;19999;-62
2024/04/11 01:11:02;;;;;;;1.10;0.70;;;23.30;45.10;;;;;;5429869;26;20006;-62
2024/04/11 01:13:29;;;;;;;1.30;0.80;;;23.30;45.10;;;;;;5432122;26;20002;-62
2024/04/11 01:15:57;;;;;;;1.48;0.80;;;23.30;45.10;;;;;;5429199;26;20062;-62
2024/04/11 01:18:25;;;;;;;2.00;0.90;;;23.30;45.10;;;;;;5429692;26;20064;-63
2024/04/11 01:20:51;;;;;;;1.25;0.73;;;23.30;45.10;;;;;;5429851;26;20424;-62
2024/04/11 01:23:17;;;;;;;0.98;0.80;;;23.20;45.00;;;;;;5428173;26;20010;-61
2024/04/11 01:25:43;;;;;;;1.23;0.82;;;23.20;45.10;;;;;;5428277;26;20047;-64
2024/04/11 01:28:09;;;;;;;1.75;0.90;;;23.20;45.10;;;;;;5427415;26;20000;-64
2024/04/11 01:30:35;;;;;;;1.27;0.80;;;23.20;45.10;;;;;;5423982;26;20067;-64
2024/04/11 01:33:01;;;;;;;1.27;0.80;;;23.20;45.10;;;;;;5427913;26;20007;-63
2024/04/11 01:35:31;;;;;;;1.20;0.80;;;23.20;45.10;;;;;;5430063;26;20080;-64
2024/04/11 01:37:58;;;;;;;1.40;0.80;;;23.20;45.10;;;;;;5427575;26;20000;-62
2024/04/11 01:40:25;;;;;;;1.10;0.88;;;23.20;45.20;;;;;;5429341;26;20002;-62
2024/04/11 01:42:52;;;;;;;1.33;0.82;;;23.20;45.20;;;;;;5428657;26;20014;-62
2024/04/11 01:45:17;;;;;;;1.73;0.80;;;23.10;45.10;;;;;;5428011;26;20500;-62
2024/04/11 01:47:43;;;;;;;1.50;0.90;;;23.20;45.20;;;;;;5426043;26;19999;-62
2024/04/11 01:50:09;;;;;;;0.85;0.70;;;23.20;45.20;;;;;;5428335;26;20004;-62
2024/04/11 01:52:35;;;;;;;1.52;0.90;;;23.10;45.20;;;;;;5431991;26;20018;-61
2024/04/11 01:55:01;;;;;;;0.93;0.70;;;23.10;45.20;;;;;;5428823;26;20588;-62
2024/04/11 01:57:27;;;;;;;1.20;0.82;;;23.10;45.20;;;;;;5426638;26;19999;-62
2024/04/11 01:59:53;;;;;;;0.98;0.77;;;23.10;45.20;;;;;;5427798;26;20003;-62
2024/04/11 02:02:22;;;;;;;1.25;0.93;;;23.10;45.20;;;;;;5426330;26;20019;-62
2024/04/11 02:04:48;;;;;;;1.17;0.80;;;23.10;45.20;;;;;;5430841;26;20529;-62
2024/04/11 02:07:14;;;;;;;1.75;0.80;;;23.10;45.20;;;;;;5429059;26;20014;-62
2024/04/11 02:09:41;;;;;;;1.02;0.80;;;23.10;45.20;;;;;;5426841;26;20062;-62
2024/04/11 02:12:07;;;;;;;1.10;0.80;;;23.00;45.20;;;;;;5427211;26;20487;-61
2024/04/11 02:14:32;;;;;;;0.88;0.70;;;23.00;45.20;;;;;;5429640;26;20011;-61
2024/04/11 02:16:59;;;;;;;0.95;0.70;;;23.00;45.20;;;;;;5424706;26;20092;-63
2024/04/11 02:19:26;;;;;;;0.75;0.73;;;23.00;45.20;;;;;;5428082;26;20013;-61
2024/04/11 02:21:52;;;;;;;1.98;0.90;;;23.00;45.20;;;;;;5427205;26;20023;-61
2024/04/11 02:24:18;;;;;;;1.20;0.80;;;23.00;45.30;;;;;;5430304;26;20507;-62
2024/04/11 02:26:47;;;;;;;1.48;0.85;;;23.00;45.30;;;;;;5423593;26;20007;-62
2024/04/11 02:29:15;;;;;;;0.90;0.80;;;23.00;45.30;;;;;;5428028;26;19995;-62
2024/04/11 02:31:42;;;;;;;1.45;0.80;;;23.00;45.30;;;;;;5428706;26;20006;-62
2024/04/11 02:34:08;;;;;;;0.75;0.70;;;23.00;45.30;;;;;;5428425;26;20008;-62
2024/04/11 02:36:34;;;;;;;1.67;0.80;;;23.00;45.30;;;;;;5428933;26;19995;-62
2024/04/11 02:39:02;;;;;;;0.90;0.70;;;22.90;45.30;;;;;;5422873;26;20310;-62
2024/04/11 02:41:28;;;;;;;1.05;0.75;;;22.90;45.30;;;;;;5428871;26;20006;-62
2024/04/11 02:43:57;;;;;;;1.48;0.82;;;22.90;45.30;;;;;;5430589;26;20483;-62
2024/04/11 02:46:25;;;;;;;;;;;22.90;45.30;;;;;;5428284;26;20031;-64
2024/04/11 02:48:51;;;;;;;1.00;0.70;;;22.90;45.30;;;;;;5428698;26;20379;-63
2024/04/11 02:51:18;;;;;;;1.00;0.73;;;22.90;45.30;;;;;;5432824;26;19998;-63
2024/04/11 02:53:43;;;;;;;1.00;0.70;;;22.90;45.30;;;;;;5430640;26;19994;-63
2024/04/11 02:56:10;;;;;;;1.42;0.80;;;22.90;45.30;;;;;;5430860;26;20424;-63
2024/04/11 02:58:39;;;;;;;0.93;0.63;;;22.90;45.30;;;;;;5430818;26;20001;-64
2024/04/11 03:01:08;;;;;;;1.25;0.70;;;22.90;45.40;;;;;;5427841;26;20007;-63
2024/04/11 03:03:35;;;;;;;1.35;0.80;;;22.90;45.40;;;;;;5425029;26;20087;-63
2024/04/11 03:06:09;;;;;;;1.20;0.77;;;22.90;45.40;;;;;;5426226;26;20071;-63
2024/04/11 03:08:35;;;;;;;0.95;0.70;;;22.80;45.30;;;;;;5425314;26;20004;-63
2024/04/11 03:11:01;;;;;;;1.52;1.00;;;22.90;45.40;;;;;;5431492;26;20010;-63
2024/04/11 03:13:28;;;;;;;0.88;0.70;;;22.80;45.30;;;;;;5425941;26;20068;-64
2024/04/11 03:16:00;;;;;;;1.10;0.70;;;22.80;45.40;;;;;;5427930;26;20055;-63
2024/04/11 03:18:27;;;;;;;1.20;0.80;;;22.80;45.40;;;;;;5422670;26;19999;-63
2024/04/11 03:20:54;;;;;;;0.95;0.70;;;22.80;45.40;;;;;;5441630;26;20028;-63
2024/04/11 03:23:21;;;;;;;1.10;0.70;;;22.80;45.40;;;;;;5427718;26;19999;-63
2024/04/11 03:25:47;;;;;;;1.17;0.80;;;22.80;45.40;;;;;;5428307;26;20019;-63
2024/04/11 03:28:14;;;;;;;0.95;0.70;;;22.80;45.40;;;;;;5441800;26;20002;-62
2024/04/11 03:30:41;;;;;;;1.05;0.77;;;22.80;45.40;;;;;;5429516;26;20018;-63
2024/04/11 03:33:06;;;;;;;1.10;0.70;;;22.80;45.50;;;;;;5425479;26;20008;-63
2024/04/11 03:35:32;;;;;;;0.85;0.70;;;22.70;45.40;;;;;;5429271;26;20087;-62
2024/04/11 03:37:58;;;;;;;1.17;0.70;;;22.80;45.50;;;;;;5428729;26;20007;-62
2024/04/11 03:40:24;;;;;;;0.70;0.55;;;22.70;45.40;;;;;;5427784;26;20432;-62
2024/04/11 03:42:50;;;;;;;0.70;0.70;;;22.70;45.50;;;;;;5426750;26;20003;-61
2024/04/11 03:45:22;;;;;;;0.90;0.70;;;22.70;45.50;;;;;;5425990;26;20076;-62
2024/04/11 03:47:51;;;;;;;0.88;0.63;;;22.70;45.50;;;;;;5426790;26;20003;-64
2024/04/11 03:50:17;;;;;;;0.90;0.70;;;22.70;45.50;;;;;;5430471;26;19999;-64
2024/04/11 03:52:42;;;;;;;1.00;0.70;;;22.70;45.50;;;;;;5431023;26;20017;-64
2024/04/11 03:55:12;;;;;;;0.98;0.80;;;22.70;45.50;;;;;;5430238;26;20031;-64
2024/04/11 03:57:38;;;;;;;0.70;0.60;;;22.70;45.50;;;;;;5431769;26;20035;-62
2024/04/11 04:00:07;;;;;;;1.00;0.63;;;22.70;45.50;;;;;;5432606;26;20010;-63
2024/04/11 04:02:36;;;;;;;0.82;0.70;;;22.70;45.50;;;;;;5433111;26;20357;-63
2024/04/11 04:05:03;;;;;;;0.95;0.80;;;22.70;45.50;;;;;;5425187;26;20003;-63
2024/04/11 04:07:28;;;;;;;1.17;0.75;;;22.70;45.50;;;;;;5426293;26;20078;-63
2024/04/11 04:09:56;;;;;;;1.13;0.90;;;22.70;45.60;;;;;;5433155;26;20000;-63
2024/04/11 04:12:23;;;;;;;0.85;0.70;;;22.60;45.50;;;;;;5431043;26;20015;-63
2024/04/11 04:14:49;;;;;;;1.80;0.90;;;22.60;45.40;;;;;;5431635;26;20010;-63
2024/04/11 04:17:16;;;;;;;0.98;0.80;;;22.60;45.40;;;;;;5425492;26;19995;-63
2024/04/11 04:19:42;;;;;;;0.70;0.63;;;22.60;45.40;;;;;;5422191;26;20018;-63
2024/04/11 04:22:13;;;;;;;1.17;0.85;;;22.60;45.40;;;;;;5428795;26;20441;-63
2024/04/11 04:24:39;;;;;;;1.27;0.80;;;22.60;45.30;;;;;;5434035;26;20507;-63
2024/04/11 04:27:06;;;;;;;0.95;0.70;;;22.60;45.30;;;;;;5436295;26;20434;-63
2024/04/11 04:29:32;;;;;;;1.30;0.80;;;22.60;45.30;;;;;;5431775;26;20420;-63
2024/04/11 04:31:58;;;;;;;1.50;1.00;;;22.60;45.30;;;;;;5428850;26;20014;-63
2024/04/11 04:34:25;;;;;;;1.27;0.80;;;22.60;45.30;;;;;;5430817;26;20047;-63
2024/04/11 04:36:51;;;;;;;1.10;0.60;;;22.60;45.30;;;;;;5431925;26;20139;-63
2024/04/11 04:39:16;;;;;;;0.82;0.70;;;22.60;45.30;;;;;;5428501;26;20007;-64
2024/04/11 04:41:43;;;;;;;1.15;0.82;;;22.60;45.80;;;;;;5428509;26;20001;-63
2024/04/11 04:44:09;;;;;;;1.30;0.80;;;22.60;45.30;;;;;;5443482;26;20009;-63
2024/04/11 04:46:34;;;;;;;1.83;0.80;;;22.60;45.80;;;;;;5430633;26;20442;-65
2024/04/11 04:49:03;;;;;;;1.40;0.80;;;22.60;45.80;;;;;;5423896;26;19999;-64
2024/04/11 04:51:31;;;;;;;1.05;0.73;;;22.50;45.30;;;;;;5430233;26;20447;-65
2024/04/11 04:53:59;;;;;;;0.87;0.80;;;22.50;45.50;;;;;;5428662;26;20072;-65
2024/04/11 04:56:32;;;;;;;1.00;0.73;;;22.50;45.30;;;;;;5443173;26;20014;-63
2024/04/11 04:58:58;;;;;;;1.27;0.80;;;22.50;45.30;;;;;;5431777;26;20137;-62
2024/04/11 05:01:26;;;;;;;0.95;0.77;;;22.50;45.30;;;;;;5429300;26;20701;-63
2024/04/11 05:03:53;;;;;;;1.38;0.80;;;22.50;45.40;;;;;;5428910;26;20000;-62
2024/04/11 05:06:19;;;;;;;1.33;0.85;;;22.50;45.40;;;;;;5427930;26;20007;-62
2024/04/11 05:08:45;;;;;;;1.58;0.90;;;22.50;45.40;;;;;;5431127;26;20000;-62
2024/04/11 05:11:21;;;;;;;1.00;0.77;;;22.50;45.40;;;;;;5426586;26;20010;-62
2024/04/11 05:13:49;;;;;;;1.80;0.95;;;22.50;45.40;;;;;;5425474;26;20003;-62
2024/04/11 05:16:18;;;;;;;1.00;0.70;;;22.50;45.50;;;;;;5422907;26;20111;-62
2024/04/11 05:18:46;;;;;;;1.30;0.70;;;22.50;45.60;;;;;;5423555;26;20097;-61
2024/04/11 05:21:16;;;;;;;2.65;0.82;;;22.50;45.80;;;;;;5427293;26;19996;-62
2024/04/11 05:23:42;;;;;;;2.25;1.20;;;22.60;46.30;;;;;;5428673;26;20441;-62
2024/04/11 05:26:22;;;;;;;1.55;1.00;;;22.60;45.60;;;;;;5430470;26;20031;-62
2024/04/11 05:28:48;;;;;;;2.13;0.85;;;22.60;45.60;;;;;;5429171;26;20011;-62
2024/04/11 05:31:17;;;;;;;1.90;0.90;;;22.60;45.50;;;;;;5428748;26;20471;-62
2024/04/11 05:33:47;;;;;;;;;;;22.70;45.50;;;;;;5428466;26;20474;-62
2024/04/11 05:36:17;;;;;;;2.08;1.00;;;22.70;45.50;;;;;;5431448;26;19932;-63
2024/04/11 05:38:46;;;;;;;1.55;0.90;;;22.80;45.40;;;;;;5428747;26;20003;-62
2024/04/11 05:41:14;;;;;;;2.28;1.25;;;22.80;45.40;;;;;;5431567;26;20018;-62
2024/04/11 05:43:42;;;;;;;2.72;0.85;;;22.90;45.40;;;;;;5427687;26;20014;-62
2024/04/11 05:46:09;;;;;;;2.08;0.82;;;22.90;45.30;;;;;;5428954;26;19999;-62
2024/04/11 05:48:35;;;;;;;2.10;0.95;;;22.90;45.20;;;;;;5430498;26;20003;-61
2024/04/11 05:51:05;;;;;;;3.15;1.55;;;23.00;45.20;;;;;;5427548;26;20428;-61
2024/04/11 05:53:36;;;;;;;3.33;1.10;;;23.00;45.20;;;;;;5429532;26;19999;-61
2024/04/11 05:56:08;;;;;;;2.15;0.90;;;23.10;45.20;;;;;;5432283;26;20106;-61
2024/04/11 05:58:35;;;;;;;1.88;0.90;;;23.10;45.10;;;;;;5427310;26;20536;-64
2024/04/11 06:01:05;;;;;;;1.50;0.98;;;23.10;45.00;;;;;;5432253;26;20021;-64
2024/04/11 06:03:36;;;;;;;3.92;1.10;;;23.20;45.00;;;;;;5430346;26;20528;-64
2024/04/11 06:06:03;;;;;;;2.22;1.08;;;23.20;45.00;;;;;;5427956;26;20546;-62
2024/04/11 06:08:29;;;;;;;1.92;1.10;;;23.20;44.90;;;;;;5424456;26;19999;-62
2024/04/11 06:10:56;;;;;;;1.83;0.85;;;23.30;44.90;;;;;;5426115;26;20010;-63
2024/04/11 06:13:22;;;;;;;1.08;0.80;;;23.20;44.80;;;;;;5426286;26;20033;-62
2024/04/11 06:15:48;;;;;;;2.33;0.93;;;23.30;44.80;;;;;;5426939;26;19995;-62
2024/04/11 06:18:15;;;;;;;1.02;0.80;;;23.30;44.80;;;;;;5424926;26;20071;-62
2024/04/11 06:20:41;;;;;;;1.52;0.98;;;23.30;44.80;;;;;;5424556;26;20021;-63
2024/04/11 06:23:15;;;;;;;1.30;0.90;;;23.30;44.80;;;;;;5425068;26;19999;-63
2024/04/11 06:25:42;;;;;;;1.17;0.70;;;23.30;44.80;;;;;;5427841;26;20014;-63
2024/04/11 06:28:11;;;;;;;1.27;0.70;;;23.30;44.70;;;;;;5424274;26;20149;-63
2024/04/11 06:30:38;;;;;;;3.65;0.90;;;23.30;44.70;;;;;;5430318;26;20463;-63
2024/04/11 06:33:08;;;;;;;1.58;0.80;;;23.30;44.60;;;;;;5428051;26;20042;-63
2024/04/11 06:35:35;;;;;;;2.35;0.90;;;23.40;44.60;;;;;;5425512;26;19998;-63
2024/04/11 06:38:04;;;;;;;2.50;0.85;;;23.40;44.60;;;;;;5425976;26;20470;-63
2024/04/11 06:40:32;;;;;;;1.75;0.80;;;23.40;44.50;;;;;;5427806;26;20007;-63
2024/04/11 06:42:59;;;;;;;1.30;0.90;;;23.40;44.60;;;;;;5425552;26;20018;-64
2024/04/11 06:45:25;;;;;;;1.67;1.10;;;23.40;44.50;;;;;;5429698;26;20031;-63
2024/04/11 06:47:52;;;;;;;1.70;0.98;;;23.40;44.50;;;;;;5428815;26;19999;-63
2024/04/11 06:50:19;;;;;;;1.92;0.90;;;23.40;44.50;;;;;;5424505;26;20023;-63
2024/04/11 06:52:45;;;;;;;1.65;0.90;;;23.40;44.50;;;;;;5429316;26;20072;-63
2024/04/11 06:55:14;;;;;;;1.30;0.85;;;23.40;44.60;;;;;;5430190;26;20006;-63
2024/04/11 06:57:41;;;;;;;1.63;0.80;;;23.40;44.50;;;;;;5432921;26;19994;-63
2024/04/11 07:00:26;;;;;;;2.15;0.95;;;23.50;44.60;;;;;;5427603;26;20003;-63
2024/04/11 07:02:54;;;;;;;1.73;0.93;;;23.40;44.50;;;;;;5423350;26;20354;-63
2024/04/11 07:05:20;;;;;;;1.15;0.77;;;23.50;44.60;;;;;;5423756;26;19999;-63
2024/04/11 07:07:54;;;;;;;2.45;0.80;;;23.50;44.60;;;;;;5425416;26;20014;-63
2024/04/11 07:10:25;;;;;;;1.50;0.90;;;23.50;44.60;;;;;;5428765;26;20000;-63
2024/04/11 07:12:54;;;;;;;1.67;0.82;;;23.50;44.60;;;;;;5425577;26;20344;-63
2024/04/11 07:15:23;;;;;;;1.88;0.90;;;23.50;44.60;;;;;;5428316;26;20021;-63
2024/04/11 07:17:58;;;;;;;1.38;0.80;;;23.50;44.60;;;;;;5425843;26;20443;-61
2024/04/11 07:20:25;;;;;;;2.20;0.82;;;23.50;44.60;;;;;;5425844;26;20071;-62
2024/04/11 07:22:54;;;;;;;1.17;0.75;;;23.60;44.70;;;;;;5426736;26;20011;-61
2024/04/11 07:25:20;;;;;;;0.70;0.70;;;23.60;44.70;;;;;;5431053;26;20015;-62
2024/04/11 07:27:46;;;;;;;2.20;1.08;;;23.60;44.70;;;;;;5425358;26;20034;-63
2024/04/11 07:30:11;;;;;;;2.13;1.00;;;23.60;44.80;;;;;;5425784;26;20469;-63
2024/04/11 07:32:40;;;;;;;2.10;0.82;;;23.60;44.80;;;;;;5429588;26;20000;-63
2024/04/11 07:35:06;;;;;;;1.00;0.90;;;23.60;44.80;;;;;;5427442;26;20047;-63
2024/04/11 07:37:32;;;;;;;0.90;0.70;;;23.60;44.80;;;;;;5433909;26;19996;-63
2024/04/11 07:40:00;;;;;;;1.40;0.75;;;23.60;44.80;;;;;;5426832;26;20006;-63
2024/04/11 07:42:48;;;;;;;1.10;0.80;;;23.60;44.70;;;;;;5426432;26;20014;-63
2024/04/11 07:45:17;;;;;;;1.10;0.80;;;23.60;44.80;;;;;;5427531;26;20030;-63
2024/04/11 07:47:43;;;;;;;1.20;0.80;;;23.60;44.70;;;;;;5420727;26;20067;-63
2024/04/11 07:50:11;;;;;;;0.90;0.70;;;23.60;44.70;;;;;;5423495;26;19998;-63
2024/04/11 07:52:37;;;;;;;1.10;0.80;;;23.60;44.80;;;;;;5427764;26;20129;-63
2024/04/11 07:55:04;;;;;;;1.27;0.80;;;23.60;44.80;;;;;;5429666;26;20009;-63
2024/04/11 07:57:30;;;;;;;0.70;0.63;;;23.60;44.80;;;;;;5424449;26;20018;-63
2024/04/11 08:00:00;;;;;;;1.13;0.80;;;23.60;44.80;;;;;;5427787;26;20006;-63
2024/04/11 08:02:26;;;;;;;;;;;23.60;44.80;;;;;;5423321;26;20017;-63
2024/04/11 08:04:52;;;;;;;0.90;0.70;;;23.60;44.80;;;;;;5429229;26;20563;-63
2024/04/11 08:07:18;;;;;;;0.88;0.77;;;23.60;44.90;;;;;;5426564;26;20068;-64
2024/04/11 08:09:55;;;;;;;0.70;0.70;;;23.60;44.80;;;;;;5430251;26;20017;-63
2024/04/11 08:12:21;;;;;;;0.77;0.70;;;23.60;44.90;;;;;;5431140;26;20415;-62
2024/04/11 08:14:47;;;;;;;1.05;0.80;;;23.60;44.90;;;;;;5428853;26;20037;-63
2024/04/11 08:17:13;;;;;;;0.80;0.70;;;23.60;44.90;;;;;;5428487;26;20485;-63
2024/04/11 08:19:39;;;;;;;0.65;0.60;;;23.60;44.90;;;;;;5427158;26;20052;-64
2024/04/11 08:22:05;;;;;;;1.08;0.70;;;23.60;44.90;;;;;;5427953;26;20018;-64
2024/04/11 08:24:31;;;;;;;1.38;0.68;;;23.60;44.90;;;;;;5426619;26;20003;-64
2024/04/11 08:26:57;;;;;;;1.17;0.70;;;23.60;45.00;;;;;;5425993;26;20011;-63
2024/04/11 08:29:23;;;;;;;0.85;0.70;;;23.70;45.00;;;;;;5425439;26;19996;-64
2024/04/11 08:31:49;;;;;;;1.13;0.70;;;23.70;45.00;;;;;;5422705;26;20438;-63
2024/04/11 08:34:15;;;;;;;0.75;0.70;;;23.70;45.00;;;;;;5427453;26;20447;-64
2024/04/11 08:36:42;;;;;;;1.00;0.70;;;23.70;45.00;;;;;;5426916;26;20010;-62
2024/04/11 08:39:09;;;;;;;0.77;0.70;;;23.70;45.00;;;;;;5428335;26;20132;-63
2024/04/11 08:41:36;;;;;;;0.95;0.70;;;23.70;45.10;;;;;;5430396;26;20035;-62
2024/04/11 08:44:02;;;;;;;0.85;0.70;;;23.70;45.00;;;;;;5427715;26;20007;-62
2024/04/11 08:46:28;;;;;;;1.65;0.80;;;23.70;45.00;;;;;;5431369;26;20459;-63
2024/04/11 08:48:54;;;;;;;1.92;0.70;;;23.70;45.00;;;;;;5430069;26;20000;-63
2024/04/11 08:51:22;;;;;;;0.70;0.70;;;23.70;45.00;;;;;;5432313;26;20132;-62
2024/04/11 08:53:49;;;;;;;0.93;0.65;;;23.80;45.10;;;;;;5433273;26;20005;-62
2024/04/11 08:56:16;;;;;;;1.27;0.80;;;23.80;45.10;;;;;;5430994;26;20007;-62
2024/04/11 08:58:48;;;;;;;2.03;0.80;;;23.80;45.20;;;;;;5428828;26;20007;-62
2024/04/11 09:01:18;;;;;;;1.00;0.70;;;23.80;45.20;;;;;;5430658;26;19999;-62
2024/04/11 09:03:52;;;;;;;0.98;0.70;;;23.80;45.10;;;;;;5434683;26;20011;-62
2024/04/11 09:06:26;;;;;;;0.90;0.80;;;23.80;45.10;;;;;;5433086;26;20030;-62
2024/04/11 09:08:53;;;;;;;1.15;0.70;;;23.80;45.10;;;;;;5434653;26;20003;-63
2024/04/11 09:11:19;;;;;;;1.23;0.70;;;23.80;45.20;;;;;;5439012;26;20003;-63
2024/04/11 09:13:44;;;;;;;1.63;0.80;;;23.90;45.20;;;;;;5430392;26;20541;-63
2024/04/11 09:16:12;;;;;;;1.20;0.80;;;23.90;45.20;;;;;;5430362;26;20015;-63
2024/04/11 09:18:37;;;;;;;0.77;0.70;;;23.90;45.20;;;;;;5430403;26;20405;-62
2024/04/11 09:21:05;;;;;;;1.02;0.70;;;23.90;45.20;;;;;;5432650;26;20010;-63
2024/04/11 09:23:43;;;;;;;0.77;0.70;;;23.90;45.20;;;;;;5432752;26;20007;-63
2024/04/11 09:26:10;;;;;;;0.77;0.70;;;23.90;45.20;;;;;;5430087;26;20014;-63
2024/04/11 09:28:38;;;;;;;0.90;0.80;;;23.90;45.20;;;;;;5429190;26;20015;-61
2024/04/11 09:31:04;;;;;;;0.70;0.70;;;23.90;45.30;;;;;;5428939;26;20055;-61
2024/04/11 09:33:34;;;;;;;0.77;0.70;;;23.90;45.30;;;;;;5429000;26;19999;-62
2024/04/11 09:36:03;;;;;;;1.20;0.80;;;24.00;45.40;;;;;;5426971;26;20017;-61
2024/04/11 09:38:29;;;;;;;0.70;0.60;;;24.00;45.50;;;;;;5430083;26;20460;-62
2024/04/11 09:40:55;;;;;;;0.98;0.73;;;24.00;45.50;;;;;;5432686;26;20034;-62
2024/04/11 09:43:27;;;;;;;0.70;0.70;;;24.00;45.50;;;;;;5425040;26;20071;-62
2024/04/11 09:45:56;;;;;;;1.13;0.70;;;24.00;45.50;;;;;;5432897;26;19999;-62
2024/04/11 09:48:25;;;;;;;1.40;0.77;;;24.00;45.50;;;;;;5431786;26;19999;-64
2024/04/11 09:50:52;;;;;;;1.30;0.80;;;24.10;45.70;;;;;;5426330;26;20014;-64
2024/04/11 09:53:27;;;;;;;0.93;0.75;;;24.10;45.60;;;;;;5429331;26;20398;-64
2024/04/11 09:55:59;;;;;;;0.85;0.70;;;24.10;45.50;;;;;;5430138;26;20069;-63
2024/04/11 09:58:28;;;;;;;1.33;0.80;;;24.10;45.50;;;;;;5426427;26;19998;-64
2024/04/11 10:01:05;;;;;;;0.80;0.75;;;24.20;45.60;;;;;;5428497;26;20003;-63
2024/04/11 10:03:40;;;;;;;1.00;0.77;;;24.20;45.60;;;;;;5427980;26;20520;-64
2024/04/11 10:06:20;;;;;;;1.38;0.70;;;24.20;45.50;;;;;;5425283;26;20574;-63
2024/04/11 10:08:48;;;;;;;1.08;0.80;;;24.20;45.50;;;;;;5429603;26;20010;-64
2024/04/11 10:11:19;;;;;;;1.17;0.77;;;24.20;46.00;;;;;;5428666;26;20011;-64
2024/04/11 10:13:49;;;;;;;1.30;0.80;;;24.30;45.90;;;;;;5426671;26;20634;-64
2024/04/11 10:16:22;;;;;;;1.77;0.80;;;24.30;45.90;;;;;;5424485;26;20010;-63
2024/04/11 10:19:04;;;;;;;1.42;0.80;;;24.30;45.70;;;;;;5429053;26;20009;-63
2024/04/11 10:21:33;;;;;;;1.23;0.98;;;24.30;45.90;;;;;;5425081;26;20003;-64
2024/04/11 10:24:26;;;;;;;2.80;0.80;;;24.30;45.70;;;;;;5426018;26;20002;-63
2024/04/11 10:26:54;;;;;;;2.65;1.00;;;24.30;46.00;;;;;;5429589;26;20002;-63
2024/04/11 10:29:21;;;;;;;1.20;0.90;;;24.40;46.00;;;;;;5427276;26;20470;-63
2024/04/11 10:31:56;;;;;;;1.00;0.80;;;24.40;46.00;;;;;;5431889;26;20006;-63
2024/04/11 10:34:34;;;;;;;2.08;0.80;;;24.40;45.90;;;;;;5429634;26;20006;-63
2024/04/11 10:37:03;;;;;;;1.17;0.80;;;24.40;45.80;;;;;;5426698;26;20471;-62
2024/04/11 10:39:35;;;;;;;3.30;0.90;;;24.40;46.30;;;;;;5427534;26;20544;-62
2024/04/11 10:42:02;;;;;;;1.42;1.00;;;24.40;45.90;;;;;;5428390;26;20461;-62
2024/04/11 10:44:28;;;;;;;1.30;0.70;;;24.50;45.70;;;;;;5429011;26;20028;-61
2024/04/11 10:46:57;;;;;;;1.10;0.80;;;24.50;45.70;;;;;;5429464;26;19999;-63
2024/04/11 10:49:28;;;;;;;1.73;0.90;;;24.50;45.60;;;;;;5432487;26;20010;-63
2024/04/11 10:51:58;;;;;;;1.77;1.00;;;24.50;45.60;;;;;;5425583;26;20011;-63
2024/04/11 10:54:26;;;;;;;1.58;0.80;;;24.50;45.60;;;;;;5426483;26;20336;-63
2024/04/11 10:56:54;;;;;;;1.75;0.80;;;24.50;45.70;;;;;;5429709;26;20015;-63
2024/04/11 10:59:26;;;;;;;1.63;0.80;;;24.50;45.70;;;;;;5428995;26;20009;-63
2024/04/11 11:02:09;;;;;;;1.80;0.90;;;24.50;46.00;;;;;;5429785;26;20004;-65
2024/04/11 11:04:43;;;;;;;1.90;0.80;;;24.50;46.10;;;;;;5428528;26;20099;-65
2024/04/11 11:07:12;;;;;;;1.20;0.82;;;24.60;45.80;;;;;;5433253;26;19999;-64
2024/04/11 11:09:42;;;;;;;;;;;24.60;45.80;;;;;;5430303;26;20137;-64
2024/04/11 11:12:11;;;;;;;2.92;0.90;;;24.60;45.80;;;;;;5426407;26;20070;-64
2024/04/11 11:14:37;;;;;;;1.33;0.90;;;24.60;45.90;;;;;;5427243;26;20022;-64
2024/04/11 11:17:07;;;;;;;2.35;1.10;;;24.60;45.80;;;;;;5434941;26;20014;-64
2024/04/11 11:19:37;;;;;;;1.88;1.00;;;24.60;45.70;;;;;;5427336;26;19998;-64
2024/04/11 11:22:03;;;;;;;1.70;0.90;;;24.60;45.80;;;;;;5426265;26;20046;-64
2024/04/11 11:24:30;;;;;;;1.92;1.00;;;24.60;45.80;;;;;;5427366;26;20080;-64
2024/04/11 11:26:59;;;;;;;2.20;1.13;;;24.70;46.20;;;;;;5425861;26;20455;-64
2024/04/11 11:29:28;;;;;;;;;;;24.70;46.10;;;;;;5425946;26;20046;-64
2024/04/11 11:32:01;;;;;;;1.73;0.90;;;24.70;45.90;;;;;;5425705;26;19925;-64
2024/04/11 11:34:30;;;;;;;2.15;0.85;;;24.70;46.30;;;;;;5427879;26;20549;-64
2024/04/11 11:37:12;;;;;;;2.60;1.00;;;24.70;45.80;;;;;;5425813;26;20007;-64
2024/04/11 11:39:42;;;;;;;1.60;1.00;;;24.70;45.80;;;;;;5429366;26;20274;-64
2024/04/11 11:42:23;;;;;;;1.73;1.00;;;24.60;46.30;;;;;;5428139;26;19999;-64
2024/04/11 11:47:37;;;;;;;2.05;1.05;;;24.70;45.80;;;;;;5429795;26;19998;-62
2024/04/11 11:50:09;;;;;;;2.22;1.00;;;24.70;45.80;;;;;;5425017;26;20007;-62
2024/04/11 11:52:45;;;;;;;1.65;0.90;;;24.70;45.80;;;;;;5426843;26;20396;-63
2024/04/11 11:55:17;;;;;;;1.33;0.90;;;24.70;45.80;;;;;;5427807;26;20444;-63
2024/04/11 11:57:55;;;;;;;2.13;0.98;;;24.70;45.80;;;;;;5422934;26;20000;-64
2024/04/11 12:00:23;;;;;;;1.58;1.10;;;24.70;45.80;;;;;;5425377;26;20011;-64
2024/04/11 12:02:54;;;;;;;1.48;0.90;;;24.80;45.80;;;;;;5428612;26;20014;-64
2024/04/11 12:05:25;;;;;;;1.40;0.93;;;24.80;45.60;;;;;;5431889;26;20024;-64
2024/04/11 12:07:58;;;;;;;2.10;0.80;;;24.80;45.60;;;;;;5430940;26;20017;-62
2024/04/11 12:10:29;;;;;;;1.98;1.02;;;24.80;45.60;;;;;;5428641;26;20011;-62
2024/04/11 12:13:18;;;;;;;1.40;0.95;;;24.80;45.40;;;;;;5435116;26;20072;-62
2024/04/11 12:15:48;;;;;;;1.02;0.80;;;24.80;45.60;;;;;;5430137;26;20451;-62
2024/04/11 12:18:16;;;;;;;1.45;0.90;;;24.80;45.50;;;;;;5426828;26;19999;-63
2024/04/11 12:20:43;;;;;;;1.65;0.90;;;24.80;45.50;;;;;;5432177;26;20352;-63
2024/04/11 12:23:10;;;;;;;1.08;0.80;;;24.90;45.50;;;;;;5427991;26;19999;-62
2024/04/11 12:25:36;;;;;;;2.15;1.00;;;24.90;45.40;;;;;;5430745;26;20512;-62
2024/04/11 12:28:04;;;;;;;1.30;0.90;;;24.90;45.50;;;;;;5430910;26;20456;-63
2024/04/11 12:30:31;;;;;;;1.97;1.00;;;24.90;45.50;;;;;;5428965;26;19999;-62
2024/04/11 12:32:57;;;;;;;1.52;0.90;;;24.80;45.50;;;;;;5431694;26;20467;-62
2024/04/11 12:35:29;;;;;;;1.70;0.80;;;24.90;45.50;;;;;;5432431;26;20014;-62
2024/04/11 12:37:56;;;;;;;2.35;1.05;;;24.90;45.50;;;;;;5424058;26;19999;-60
2024/04/11 12:40:33;;;;;;;1.67;1.00;;;24.90;45.50;;;;;;5430571;26;20072;-61
2024/04/11 12:43:01;;;;;;;3.05;1.42;;;24.90;45.40;;;;;;5429197;26;20491;-61
2024/04/11 12:45:31;;;;;;;2.92;1.67;;;24.90;45.30;;;;;;5435029;26;20187;-61
2024/04/11 12:48:05;;;;;;;3.05;1.73;;;24.90;45.30;;;;;;5431164;26;20018;-61
2024/04/11 12:50:38;;;;;;;3.60;1.70;;;24.90;45.30;;;;;;5431029;26;20332;-60
2024/04/11 12:53:12;;;;;;;2.60;1.40;;;25.00;45.30;;;;;;5429630;26;20004;-62
2024/04/11 12:55:42;;;;;;;2.95;1.77;;;25.00;45.30;;;;;;5431581;26;20003;-61
2024/04/11 12:58:10;;;;;;;3.88;1.70;;;25.00;45.10;;;;;;5432443;26;19995;-62